Kezdőlap
METAR-TAF:

METAR-TAF

Repülőterek :

Makassar, South Sulawesi, Indonézia

földrajzi szélesség: 05-04S, földrajzi hosszúság: 119-33E, magasság: 14 m

Jelenlegi meteorológiai megfigyelések

A jelentés 47 perccel ezelõtt készült, 10:30 UTC
Dél-délkeleti szél 1 kt
Hőmérséklet 27°C
Páratartalom 94%
Légköri nyomás 1009 hPa
Látótávolság: 8000 m
Szórványos felhőzet 1800 lábon

METAR: WAAA 291030Z 15001KT 8000 SCT018 27/26 Q1009 NOSIG

Idő: 18:17 (11:17 UTC)

Előrejelzés

A jelentés 6 órával és 17 perccel ezelõtt készült, 05:00 UTC
Az előrejelzés 29-én 06 óra UTC és 30-én 12 óra UTC között érvényes
Nyugat-északnyugati szél 10 kt
Látótávolság 10 km, vagy több
Szórványos felhőzet 1800 lábon
29-én 10 óra UTC és 29-én 12 óra UTC között fokozatosan kialakuló
Kelet-délkeleti szél 5 kt

TAF: WAAA 290500Z 2906/3012 29010KT 9999 SCT018 BECMG 2910/2912 11005KT

Meteorológiai megfigyelések és előrejelzések több, mint 4000 repülőtéren (METAR és TAF jelentéseket).

A térképen piros és sárga pontok jelzik az elérhető meteorológiai állomásokat.

Mozgassa az egeret a pont fölött, hogy megjelenjen az állomás neve.

Azután kattintson az időjárási megfigyelések és előrejelzések megtekintéséhez.

A térkép megváltoztatása: kattintson a fekete keresztel jelölt zöld gombra ráközelítéshez, a vonallal jelölt zöld gombra távolításhoz, vagy a zöld nyilakra a szomszédos térképek eléréséhez.


METAR-TAF: